Orbital elements of ARIANE 44L DEB
| Launched | 28 October 1991 |
| Flight ended | – |
| Launch site | Europe's Spaceport, Kourou, French Guiana |
| Owner | France |
| NORAD ID | 28575 |
| Date fetched |
Epoch osculation |
Inc. [°] |
Ecc. | RA asc node [hr] |
Arg Peri. [°] |
Mean anom [°] |
Mean motion [rev/day] |
Abs. mag |
| Date fetched |
Epoch osculation |
Inc. [°] |
Ecc. | RA asc node [hr] |
Arg Peri. [°] |
Mean anom [°] |
Mean motion [rev/day] |
Abs. mag |
| 2026 May 08 17:57 | 2026 May 05 10:37:52 | 6.2216 | 0.66029 | 2.0614 | 354.3033 | 175.8723 | 2.82868 | – |
| 2026 May 07 17:58 | 2026 May 05 10:37:52 | 6.2216 | 0.66029 | 2.0614 | 354.3033 | 175.8723 | 2.82868 | – |
| 2026 May 06 17:57 | 2026 May 05 10:37:52 | 6.2216 | 0.66029 | 2.0614 | 354.3033 | 175.8723 | 2.82868 | – |
| 2026 May 05 17:57 | 2026 May 05 10:37:52 | 6.2216 | 0.66029 | 2.0614 | 354.3033 | 175.8723 | 2.82868 | – |
| 2026 May 04 17:57 | 2026 Apr 30 12:28:19 | 6.2143 | 0.66031 | 2.2158 | 349.6830 | 175.8723 | 2.82868 | – |
| 2026 May 03 17:57 | 2026 Apr 30 12:28:19 | 6.2143 | 0.66031 | 2.2158 | 349.6830 | 175.8723 | 2.82868 | – |
| 2026 May 02 17:57 | 2026 Apr 30 12:28:19 | 6.2143 | 0.66031 | 2.2158 | 349.6830 | 175.8723 | 2.82868 | – |
| 2026 May 01 17:56 | 2026 Apr 30 12:28:19 | 6.2143 | 0.66031 | 2.2158 | 349.6830 | 175.8723 | 2.82868 | – |
| 2026 Apr 30 17:56 | 2026 Apr 30 12:28:19 | 6.2143 | 0.66031 | 2.2158 | 349.6830 | 175.8723 | 2.82868 | – |
| 2026 Apr 29 17:57 | 2026 Apr 24 11:04:07 | 6.2053 | 0.66035 | 2.4063 | 343.9864 | 175.8723 | 2.82868 | – |
| 2026 Apr 28 17:56 | 2026 Apr 24 11:04:07 | 6.2053 | 0.66035 | 2.4063 | 343.9864 | 175.8723 | 2.82868 | – |
| 2026 Apr 27 17:58 | 2026 Apr 24 11:04:07 | 6.2053 | 0.66035 | 2.4063 | 343.9864 | 175.8723 | 2.82868 | – |
| 2026 Apr 26 17:58 | 2026 Apr 24 11:04:07 | 6.2053 | 0.66035 | 2.4063 | 343.9864 | 175.8723 | 2.82868 | – |
| 2026 Apr 25 17:58 | 2026 Apr 24 11:04:07 | 6.2053 | 0.66035 | 2.4063 | 343.9864 | 175.8723 | 2.82868 | – |
| 2026 Apr 24 17:59 | 2026 Apr 24 11:04:07 | 6.2053 | 0.66035 | 2.4063 | 343.9864 | 175.8723 | 2.82868 | – |
| 2026 Apr 23 17:57 | 2026 Apr 19 06:39:46 | 6.1987 | 0.66036 | 2.5688 | 339.1143 | 175.8723 | 2.82868 | – |
| 2026 Apr 22 17:57 | 2026 Apr 19 06:39:46 | 6.1987 | 0.66036 | 2.5688 | 339.1143 | 175.8723 | 2.82868 | – |
| 2026 Apr 21 17:57 | 2026 Apr 19 06:39:46 | 6.1987 | 0.66036 | 2.5688 | 339.1143 | 175.8723 | 2.82868 | – |
| 2026 Apr 20 17:57 | 2026 Apr 19 06:39:46 | 6.1987 | 0.66036 | 2.5688 | 339.1143 | 175.8723 | 2.82868 | – |
| 2026 Apr 19 17:58 | 2026 Apr 19 06:39:46 | 6.1987 | 0.66036 | 2.5688 | 339.1143 | 175.8723 | 2.82868 | – |
| 2026 Apr 18 17:56 | 2026 Apr 13 05:13:54 | 6.1906 | 0.66036 | 2.7591 | 333.4174 | 175.8723 | 2.82868 | – |
| 2026 Apr 16 17:57 | 2026 Apr 13 05:13:54 | 6.1906 | 0.66036 | 2.7591 | 333.4174 | 175.8723 | 2.82868 | – |
| 2026 Apr 14 17:57 | 2026 Apr 13 05:13:54 | 6.1906 | 0.66036 | 2.7591 | 333.4174 | 175.8723 | 2.82868 | – |
| 2026 Apr 13 17:57 | 2026 Apr 13 05:13:54 | 6.1906 | 0.66036 | 2.7591 | 333.4174 | 175.8723 | 2.82868 | – |
| 2026 Apr 12 17:57 | 2026 Apr 08 05:22:57 | 6.1843 | 0.66038 | 2.9168 | 328.7085 | 175.8723 | 2.82868 | – |
| 2026 Apr 11 17:57 | 2026 Apr 08 05:22:57 | 6.1843 | 0.66038 | 2.9168 | 328.7085 | 175.8723 | 2.82868 | – |